Time;durP1;ratioP1;P1;durP2;ratioP2;P2;SDS_P1;SDS_P2;PMS_P1;PMS_P2;Temp;Humidity;BMP_temperature;BMP_pressure;BME280_temperature;BME280_humidity;BME280_pressure;Samples;Min_cycle;Max_cycle;Signal;HPM_P1;HPM_P2
2023/04/02 00:00:04;;;;;;;6.00;3.92;;;;;;;;;;4931878;29;20469;-78
2023/04/02 00:02:49;;;;;;;5.85;3.60;;;;;;;;;;4915348;29;20047;-78
2023/04/02 00:05:49;;;;;;;4.78;3.60;;;;;;;;;;4913935;29;20107;-78
2023/04/02 00:08:21;;;;;;;4.53;3.05;;;;;;;;;;4907881;29;20108;-80
2023/04/02 00:10:50;;;;;;;5.32;3.38;;;;;;;;;;4913281;29;20492;-78
2023/04/02 00:13:21;;;;;;;4.97;3.30;;;;;;;;;;4913121;29;20131;-78
2023/04/02 00:15:49;;;;;;;4.85;3.20;;;;;;;;;;4915456;29;20178;-78
2023/04/02 00:18:16;;;;;;;6.07;3.28;;;;;;;;;;4928900;29;20051;-78
2023/04/02 00:20:45;;;;;;;5.38;3.60;;;;;;;;;;4934091;29;20063;-77
2023/04/02 00:23:13;;;;;;;5.25;3.47;;;;;;;;;;4932908;29;20130;-78
2023/04/02 00:25:44;;;;;;;6.40;3.97;;;;;;;;;;4930344;29;20047;-78
2023/04/02 00:28:12;;;;;;;6.05;4.28;;;;;;;;;;4931647;29;20131;-79
2023/04/02 00:31:05;;;;;;;6.22;4.00;;;;;;;;;;4931357;29;20078;-78
2023/04/02 00:33:32;;;;;;;6.43;4.45;;;;;;;;;;4929326;29;20047;-78
2023/04/02 00:35:59;;;;;;;5.32;3.85;;;;;;;;;;4933846;29;20111;-78
2023/04/02 00:38:30;;;;;;;6.18;3.80;;;;;;;;;;4932995;29;20055;-78
2023/04/02 00:41:01;;;;;;;6.22;3.88;;;;;;;;;;4947064;29;20111;-78
2023/04/02 00:43:31;;;;;;;6.93;4.10;;;;;;;;;;4933655;29;20500;-78
2023/04/02 00:46:00;;;;;;;5.80;3.92;;;;;;;;;;4947796;29;20043;-78
2023/04/02 00:48:47;;;;;;;6.75;4.30;;;;;;;;;;4930525;29;20048;-77
2023/04/02 00:51:21;;;;;;;7.82;4.78;;;;;;;;;;4933514;29;20062;-78
2023/04/02 00:53:49;;;;;;;7.82;4.50;;;;;;;;;;4907192;29;20040;-77
2023/04/02 00:56:25;;;;;;;8.75;5.03;;;;;;;;;;4912793;29;20168;-77
2023/04/02 00:58:53;;;;;;;8.57;5.43;;;;;;;;;;4912771;29;20076;-77
2023/04/02 01:01:25;;;;;;;8.25;5.15;;;;;;;;;;4913024;29;20044;-77
2023/04/02 01:03:56;;;;;;;8.60;5.05;;;;;;;;;;4910268;29;20047;-77
2023/04/02 01:06:28;;;;;;;9.90;5.60;;;;;;;;;;4912130;29;20067;-78
2023/04/02 01:08:57;;;;;;;10.25;5.47;;;;;;;;;;4912255;29;20040;-77
2023/04/02 01:11:41;;;;;;;8.32;5.30;;;;;;;;;;4911616;29;20410;-77
2023/04/02 01:14:14;;;;;;;7.93;5.28;;;;;;;;;;4913528;29;20564;-78
2023/04/02 01:16:59;;;;;;;9.73;5.22;;;;;;;;;;4926237;29;20062;-77
2023/04/02 01:19:29;;;;;;;8.18;5.40;;;;;;;;;;4931151;29;20044;-78
2023/04/02 01:22:06;;;;;;;8.75;5.22;;;;;;;;;;4929679;29;20088;-77
2023/04/02 01:24:36;;;;;;;8.15;5.10;;;;;;;;;;4932430;29;20051;-77
2023/04/02 01:27:07;;;;;;;9.27;5.72;;;;;;;;;;4932104;29;20044;-77
2023/04/02 01:29:36;;;;;;;9.52;5.57;;;;;;;;;;4945596;29;20044;-77
2023/04/02 01:32:13;;;;;;;9.13;5.43;;;;;;;;;;4955725;29;20080;-76
2023/04/02 01:34:43;;;;;;;8.88;5.43;;;;;;;;;;4947079;29;20048;-77
2023/04/02 01:37:15;;;;;;;8.98;5.28;;;;;;;;;;4946365;29;20036;-77
2023/04/02 01:39:48;;;;;;;9.38;5.65;;;;;;;;;;4931005;29;20126;-78
2023/04/02 01:42:28;;;;;;;9.60;5.93;;;;;;;;;;4933058;29;20044;-79
2023/04/02 01:44:59;;;;;;;11.35;6.13;;;;;;;;;;4931324;29;20048;-78
2023/04/02 01:47:27;;;;;;;9.45;5.45;;;;;;;;;;4931700;29;20058;-77
2023/04/02 01:50:03;;;;;;;8.55;5.35;;;;;;;;;;4946943;29;20130;-77
2023/04/02 01:52:40;;;;;;;9.30;5.55;;;;;;;;;;4916290;29;20488;-78
2023/04/02 01:55:11;;;;;;;8.20;5.10;;;;;;;;;;4929805;29;20421;-78
2023/04/02 01:57:42;;;;;;;8.48;5.10;;;;;;;;;;4930914;29;20214;-78
2023/04/02 02:00:13;;;;;;;9.40;5.53;;;;;;;;;;4933884;29;20052;-78
2023/04/02 02:02:45;;;;;;;9.95;5.07;;;;;;;;;;4930428;29;20092;-77
2023/04/02 02:05:13;;;;;;;9.13;5.22;;;;;;;;;;4930106;29;20504;-77
2023/04/02 02:07:41;;;;;;;8.68;5.40;;;;;;;;;;4930597;29;20056;-77
2023/04/02 02:10:14;;;;;;;8.77;5.57;;;;;;;;;;4927156;29;20071;-78
2023/04/02 02:12:42;;;;;;;9.27;5.47;;;;;;;;;;4933884;29;20053;-78
2023/04/02 02:15:14;;;;;;;10.48;5.60;;;;;;;;;;4934674;29;20052;-78
2023/04/02 02:17:41;;;;;;;9.23;5.47;;;;;;;;;;4932631;29;20083;-77
2023/04/02 02:20:09;;;;;;;9.57;5.60;;;;;;;;;;4932841;29;20055;-78
2023/04/02 02:22:38;;;;;;;8.32;5.20;;;;;;;;;;4931441;29;20071;-77
2023/04/02 02:25:09;;;;;;;11.25;6.50;;;;;;;;;;4930515;29;20047;-78
2023/04/02 02:27:42;;;;;;;10.25;5.60;;;;;;;;;;4932906;29;20369;-76
2023/04/02 02:30:15;;;;;;;14.45;6.47;;;;;;;;;;4939032;29;20051;-77
2023/04/02 02:33:03;;;;;;;9.88;6.18;;;;;;;;;;4931600;29;20056;-77
2023/04/02 02:35:51;;;;;;;10.15;5.78;;;;;;;;;;4932108;29;20044;-78
2023/04/02 02:38:34;;;;;;;11.15;6.60;;;;;;;;;;4931913;29;20074;-79
2023/04/02 02:41:16;;;;;;;12.20;6.70;;;;;;;;;;4930273;29;20265;-77
2023/04/02 02:43:56;;;;;;;13.55;7.47;;;;;;;;;;4928691;29;20508;-76
2023/04/02 02:46:24;;;;;;;13.02;7.78;;;;;;;;;;4945504;29;20047;-78
2023/04/02 02:48:53;;;;;;;12.85;7.97;;;;;;;;;;4944271;29;20516;-77
2023/04/02 02:51:24;;;;;;;11.50;6.82;;;;;;;;;;4931119;29;20044;-78
2023/04/02 02:53:53;;;;;;;11.63;7.15;;;;;;;;;;4894908;29;20060;-77
2023/04/02 02:56:21;;;;;;;11.75;7.05;;;;;;;;;;4909418;29;20048;-78
2023/04/02 02:58:50;;;;;;;9.50;6.32;;;;;;;;;;4909648;29;20072;-77
2023/04/02 03:01:21;;;;;;;9.45;5.95;;;;;;;;;;4909259;29;20253;-77
2023/04/02 03:03:52;;;;;;;10.95;6.03;;;;;;;;;;4909202;29;20465;-77
2023/04/02 03:06:20;;;;;;;7.85;4.95;;;;;;;;;;4909592;29;20040;-77
2023/04/02 03:09:16;;;;;;;7.80;4.43;;;;;;;;;;4909057;29;20485;-77
2023/04/02 03:11:43;;;;;;;6.70;4.30;;;;;;;;;;4910463;29;20048;-78
2023/04/02 03:14:21;;;;;;;8.20;4.50;;;;;;;;;;4911191;29;20056;-78
2023/04/02 03:16:51;;;;;;;8.82;5.00;;;;;;;;;;4895907;29;20199;-77
2023/04/02 03:19:18;;;;;;;7.38;4.78;;;;;;;;;;4910379;29;20048;-78
2023/04/02 03:21:53;;;;;;;9.18;5.40;;;;;;;;;;4911649;29;20044;-78
2023/04/02 03:24:38;;;;;;;10.73;4.72;;;;;;;;;;4910858;29;20040;-78
2023/04/02 03:27:14;;;;;;;7.20;4.80;;;;;;;;;;4913980;29;20397;-77
2023/04/02 03:29:48;;;;;;;8.15;5.18;;;;;;;;;;4927883;29;20050;-77
2023/04/02 03:32:16;;;;;;;12.73;6.10;;;;;;;;;;4946310;29;20046;-78
2023/04/02 03:34:47;;;;;;;8.48;5.45;;;;;;;;;;4932355;29;20552;-78
2023/04/02 03:37:20;;;;;;;10.05;6.10;;;;;;;;;;4933919;29;20701;-79
2023/04/02 03:40:08;;;;;;;10.10;6.00;;;;;;;;;;4947761;29;20044;-78
2023/04/02 03:42:41;;;;;;;9.13;6.05;;;;;;;;;;4932227;29;20039;-78
2023/04/02 03:45:11;;;;;;;12.55;6.00;;;;;;;;;;4934784;29;20128;-79
2023/04/02 03:47:41;;;;;;;13.05;7.07;;;;;;;;;;4933289;29;20047;-78
2023/04/02 03:50:22;;;;;;;14.68;7.00;;;;;;;;;;4933767;29;20043;-79
2023/04/02 03:52:51;;;;;;;15.55;8.40;;;;;;;;;;4949384;29;20702;-78
2023/04/02 03:55:22;;;;;;;15.38;8.07;;;;;;;;;;4931221;29;20055;-78
2023/04/02 03:58:08;;;;;;;14.38;8.20;;;;;;;;;;4946390;29;20044;-76
2023/04/02 04:00:48;;;;;;;18.20;8.55;;;;;;;;;;4929770;29;20040;-78
2023/04/02 04:03:25;;;;;;;15.98;8.77;;;;;;;;;;4932204;29;20051;-77
2023/04/02 04:05:57;;;;;;;13.93;8.68;;;;;;;;;;4929710;29;20099;-77
2023/04/02 04:08:29;;;;;;;18.08;9.50;;;;;;;;;;4929752;29;20134;-77
2023/04/02 04:10:57;;;;;;;17.65;9.80;;;;;;;;;;4929087;29;20055;-77
2023/04/02 04:13:30;;;;;;;19.08;9.48;;;;;;;;;;4933020;29;20044;-78
2023/04/02 04:15:59;;;;;;;21.15;10.45;;;;;;;;;;4930780;29;20111;-77
2023/04/02 04:18:33;;;;;;;20.48;10.80;;;;;;;;;;4931731;29;20051;-78
2023/04/02 04:21:14;;;;;;;19.52;9.43;;;;;;;;;;4932059;29;20044;-78
2023/04/02 04:23:49;;;;;;;17.80;9.95;;;;;;;;;;4948340;29;20750;-78
2023/04/02 04:26:41;;;;;;;17.77;9.68;;;;;;;;;;4931102;29;20054;-76
2023/04/02 04:29:26;;;;;;;18.35;9.88;;;;;;;;;;4918046;29;20048;-78
2023/04/02 04:31:54;;;;;;;15.18;9.48;;;;;;;;;;4934478;29;20512;-79
2023/04/02 04:34:50;;;;;;;18.55;9.93;;;;;;;;;;4932526;29;20040;-79
2023/04/02 04:37:28;;;;;;;18.77;10.48;;;;;;;;;;4931641;29;20098;-79
2023/04/02 04:39:56;;;;;;;19.08;10.82;;;;;;;;;;4930374;29;20508;-77
2023/04/02 04:42:26;;;;;;;15.93;9.93;;;;;;;;;;4916678;29;20064;-79
2023/04/02 04:44:52;;;;;;;19.20;10.32;;;;;;;;;;4938776;29;20076;-77
2023/04/02 04:47:22;;;;;;;15.82;9.13;;;;;;;;;;4933500;29;20036;-78
2023/04/02 04:50:02;;;;;;;14.95;9.25;;;;;;;;;;4930390;29;20070;-79
2023/04/02 04:52:35;;;;;;;13.70;8.48;;;;;;;;;;4932199;29;20504;-79
2023/04/02 04:55:20;;;;;;;17.20;9.70;;;;;;;;;;4915782;29;20048;-78
2023/04/02 04:57:48;;;;;;;16.55;8.13;;;;;;;;;;4930741;29;20350;-77
2023/04/02 05:00:18;;;;;;;15.45;8.35;;;;;;;;;;4931879;29;20048;-79
2023/04/02 05:02:47;;;;;;;13.52;8.00;;;;;;;;;;4933422;29;20167;-78
2023/04/02 05:05:16;;;;;;;11.55;6.38;;;;;;;;;;4933484;29;20049;-77
2023/04/02 05:07:47;;;;;;;11.82;6.40;;;;;;;;;;4932827;29;20040;-76
2023/04/02 05:10:27;;;;;;;9.60;6.05;;;;;;;;;;4930522;29;20473;-78
2023/04/02 05:12:58;;;;;;;11.77;6.75;;;;;;;;;;4946195;28;20047;-77
2023/04/02 05:15:27;;;;;;;10.27;6.30;;;;;;;;;;4949985;28;20460;-78
2023/04/02 05:17:56;;;;;;;11.88;6.45;;;;;;;;;;4933690;28;20801;-78
2023/04/02 05:20:30;;;;;;;11.35;6.63;;;;;;;;;;4950244;28;20110;-78
2023/04/02 05:23:08;;;;;;;11.55;6.43;;;;;;;;;;4950524;28;20118;-79
2023/04/02 05:25:36;;;;;;;12.13;6.65;;;;;;;;;;4949238;28;20083;-78
2023/04/02 05:28:17;;;;;;;11.02;6.30;;;;;;;;;;4921615;29;20043;-79
2023/04/02 05:30:48;;;;;;;10.40;6.43;;;;;;;;;;4925447;29;21558;-79
2023/04/02 05:33:21;;;;;;;10.90;6.20;;;;;;;;;;4930042;29;20043;-78
2023/04/02 05:35:52;;;;;;;13.70;6.25;;;;;;;;;;4930441;29;20048;-78
2023/04/02 05:38:24;;;;;;;10.82;6.43;;;;;;;;;;4929645;29;20063;-78
2023/04/02 05:40:57;;;;;;;12.77;6.70;;;;;;;;;;4930246;29;20071;-77
2023/04/02 05:43:25;;;;;;;12.93;7.40;;;;;;;;;;4922002;29;20051;-77
2023/04/02 05:46:06;;;;;;;15.32;8.43;;;;;;;;;;4937391;29;20044;-79
2023/04/02 05:48:38;;;;;;;17.33;8.75;;;;;;;;;;4937128;29;20046;-78
2023/04/02 05:51:07;;;;;;;14.98;8.13;;;;;;;;;;4940579;29;20543;-78
2023/04/02 05:53:36;;;;;;;13.20;7.85;;;;;;;;;;4917091;29;20059;-77
2023/04/02 05:56:05;;;;;;;11.55;7.25;;;;;;;;;;4931669;28;20126;-77
2023/04/02 05:58:37;;;;;;;12.80;6.57;;;;;;;;;;4931385;29;20475;-77
2023/04/02 06:01:16;;;;;;;11.52;6.20;;;;;;;;;;4935838;28;20045;-78
2023/04/02 06:03:50;;;;;;;10.90;5.85;;;;;;;;;;4936174;28;20106;-78
2023/04/02 06:06:20;;;;;;;11.98;5.93;;;;;;;;;;4930406;29;20044;-77
2023/04/02 06:08:49;;;;;;;10.40;5.50;;;;;;;;;;4908292;29;20548;-76
2023/04/02 06:11:25;;;;;;;13.88;6.13;;;;;;;;;;4923918;29;20481;-77
2023/04/02 06:13:52;;;;;;;13.80;6.80;;;;;;;;;;4912017;29;20047;-78
2023/04/02 06:16:24;;;;;;;11.23;6.25;;;;;;;;;;4913069;29;20047;-77
2023/04/02 06:18:50;;;;;;;9.70;6.35;;;;;;;;;;4933837;29;20131;-78
2023/04/02 06:21:19;;;;;;;13.82;7.00;;;;;;;;;;4916596;29;20052;-77
2023/04/02 06:23:52;;;;;;;12.20;6.97;;;;;;;;;;4913455;29;20051;-77
2023/04/02 06:26:31;;;;;;;12.13;6.35;;;;;;;;;;4927084;29;20043;-77
2023/04/02 06:29:16;;;;;;;11.07;5.80;;;;;;;;;;4924429;29;20166;-77
2023/04/02 06:32:01;;;;;;;9.38;5.63;;;;;;;;;;4922413;29;20536;-77
2023/04/02 06:34:30;;;;;;;10.45;5.82;;;;;;;;;;4924079;29;20122;-78
2023/04/02 06:37:26;;;;;;;12.65;6.25;;;;;;;;;;4934174;28;20051;-77
2023/04/02 06:40:13;;;;;;;11.05;6.20;;;;;;;;;;4930355;29;20130;-78
2023/04/02 06:42:41;;;;;;;10.30;6.25;;;;;;;;;;4930016;28;20068;-77
2023/04/02 06:45:42;;;;;;;10.35;6.05;;;;;;;;;;4889064;28;20039;-77
2023/04/02 06:48:28;;;;;;;11.45;5.95;;;;;;;;;;4905023;29;20180;-78
2023/04/02 06:51:06;;;;;;;12.63;6.05;;;;;;;;;;4922670;29;20043;-77
2023/04/02 06:53:35;;;;;;;11.80;6.07;;;;;;;;;;4912470;29;20152;-78
2023/04/02 06:56:18;;;;;;;11.57;4.85;;;;;;;;;;4922243;29;20066;-78
2023/04/02 06:58:45;;;;;;;8.05;4.65;;;;;;;;;;4919989;29;20052;-77
2023/04/02 07:01:16;;;;;;;10.57;4.53;;;;;;;;;;4922410;29;20051;-77
2023/04/02 07:03:43;;;;;;;8.63;4.65;;;;;;;;;;4927676;29;20509;-77
2023/04/02 07:06:18;;;;;;;6.45;3.70;;;;;;;;;;4925216;29;20555;-78
2023/04/02 07:08:47;;;;;;;11.43;4.28;;;;;;;;;;4929636;28;20142;-78
2023/04/02 07:11:19;;;;;;;7.70;3.45;;;;;;;;;;4927104;29;20047;-77
2023/04/02 07:13:49;;;;;;;6.90;3.88;;;;;;;;;;4916096;29;20080;-76
2023/04/02 07:16:18;;;;;;;6.68;3.63;;;;;;;;;;4924225;29;20139;-76
2023/04/02 07:18:45;;;;;;;6.47;3.42;;;;;;;;;;4935339;28;20527;-79
2023/04/02 07:21:12;;;;;;;8.80;4.15;;;;;;;;;;4929878;28;20043;-79
2023/04/02 07:23:39;;;;;;;6.63;3.90;;;;;;;;;;4936925;28;20062;-77
2023/04/02 07:26:06;;;;;;;7.88;3.80;;;;;;;;;;4944352;28;20050;-77
2023/04/02 07:28:33;;;;;;;7.10;4.20;;;;;;;;;;4921892;29;20420;-79
2023/04/02 07:31:02;;;;;;;11.38;4.82;;;;;;;;;;4935200;29;20052;-78
2023/04/02 07:33:29;;;;;;;10.63;5.82;;;;;;;;;;4923993;29;20235;-77
2023/04/02 07:35:57;;;;;;;12.40;6.82;;;;;;;;;;4927778;28;20051;-78
2023/04/02 07:38:23;;;;;;;19.35;7.65;;;;;;;;;;4926063;29;20355;-78
2023/04/02 07:40:50;;;;;;;15.68;7.97;;;;;;;;;;4923981;29;20059;-78
2023/04/02 07:43:17;;;;;;;21.52;8.00;;;;;;;;;;4913731;29;20050;-78
2023/04/02 07:45:43;;;;;;;17.02;8.63;;;;;;;;;;4922680;29;20382;-78
2023/04/02 07:48:11;;;;;;;20.25;8.38;;;;;;;;;;4923324;29;20131;-77
2023/04/02 07:50:39;;;;;;;15.52;7.72;;;;;;;;;;4925608;29;20387;-78
2023/04/02 07:53:07;;;;;;;14.60;8.32;;;;;;;;;;4925962;29;20055;-76
2023/04/02 07:55:34;;;;;;;17.25;8.27;;;;;;;;;;4907821;29;20505;-78
2023/04/02 07:58:01;;;;;;;15.32;7.72;;;;;;;;;;4922847;29;20099;-77
2023/04/02 08:00:28;;;;;;;13.10;7.65;;;;;;;;;;4907873;29;20130;-75
2023/04/02 08:02:55;;;;;;;18.10;7.57;;;;;;;;;;4924482;29;20059;-77
2023/04/02 08:05:22;;;;;;;17.23;8.10;;;;;;;;;;4920311;29;20295;-79
2023/04/02 08:07:53;;;;;;;25.70;9.35;;;;;;;;;;4921154;29;20151;-79
2023/04/02 08:10:20;;;;;;;20.80;8.60;;;;;;;;;;4925674;29;20154;-78
2023/04/02 08:12:46;;;;;;;18.20;9.30;;;;;;;;;;4915264;29;20477;-77
2023/04/02 08:15:14;;;;;;;16.42;8.00;;;;;;;;;;4931065;29;20070;-78
2023/04/02 08:17:42;;;;;;;23.05;10.13;;;;;;;;;;4925790;29;20044;-76
2023/04/02 08:20:20;;;;;;;17.42;9.07;;;;;;;;;;4924189;29;20055;-76
2023/04/02 08:22:47;;;;;;;16.90;8.20;;;;;;;;;;4925735;29;20076;-78
2023/04/02 08:25:14;;;;;;;17.95;7.95;;;;;;;;;;4924604;29;20047;-77
2023/04/02 08:27:41;;;;;;;16.00;7.90;;;;;;;;;;4924474;29;20083;-75
2023/04/02 08:30:08;;;;;;;12.27;7.10;;;;;;;;;;4916095;29;20312;-76
2023/04/02 08:32:35;;;;;;;13.48;7.15;;;;;;;;;;4924025;29;20442;-78
2023/04/02 08:35:01;;;;;;;15.55;7.43;;;;;;;;;;4920598;29;20485;-77
2023/04/02 08:37:28;;;;;;;12.82;6.68;;;;;;;;;;4911213;29;20139;-77
2023/04/02 08:39:55;;;;;;;12.70;6.07;;;;;;;;;;4921182;29;20187;-77
2023/04/02 08:42:21;;;;;;;11.15;4.90;;;;;;;;;;4921275;29;20044;-76
2023/04/02 08:44:48;;;;;;;10.07;4.70;;;;;;;;;;4923951;29;20063;-79
2023/04/02 08:47:17;;;;;;;11.52;4.40;;;;;;;;;;4926493;29;20070;-78
2023/04/02 08:49:56;;;;;;;8.20;4.15;;;;;;;;;;4929302;29;20056;-79
2023/04/02 08:52:29;;;;;;;7.85;4.22;;;;;;;;;;4928713;29;20534;-78
2023/04/02 08:54:56;;;;;;;11.30;3.92;;;;;;;;;;4926184;29;20063;-78
2023/04/02 08:57:40;;;;;;;9.77;4.07;;;;;;;;;;4928805;29;20055;-79
2023/04/02 09:00:19;;;;;;;8.63;3.97;;;;;;;;;;4919970;29;20084;-77
2023/04/02 09:02:48;;;;;;;9.40;3.90;;;;;;;;;;4911859;29;20086;-78
2023/04/02 09:05:27;;;;;;;8.65;4.10;;;;;;;;;;4920106;29;20101;-78
2023/04/02 09:07:55;;;;;;;8.23;3.97;;;;;;;;;;4935133;28;20147;-78
2023/04/02 09:10:24;;;;;;;8.95;3.95;;;;;;;;;;4938102;28;20399;-78
2023/04/02 09:12:51;;;;;;;10.18;4.13;;;;;;;;;;4921002;29;20076;-78
2023/04/02 09:15:24;;;;;;;8.75;4.15;;;;;;;;;;4928884;29;20047;-79
2023/04/02 09:17:55;;;;;;;6.82;4.05;;;;;;;;;;4925236;29;20063;-78
2023/04/02 09:20:26;;;;;;;7.05;3.92;;;;;;;;;;4929320;29;20149;-77
2023/04/02 09:22:54;;;;;;;7.68;3.42;;;;;;;;;;4923930;29;20155;-77
2023/04/02 09:25:24;;;;;;;8.25;3.70;;;;;;;;;;4920256;29;20797;-77
2023/04/02 09:27:52;;;;;;;9.65;3.70;;;;;;;;;;4928983;29;20155;-76
2023/04/02 09:30:28;;;;;;;7.15;3.78;;;;;;;;;;4925939;29;20062;-76
2023/04/02 09:32:55;;;;;;;10.57;3.70;;;;;;;;;;4931278;29;20067;-77
2023/04/02 09:35:24;;;;;;;5.10;2.88;;;;;;;;;;4929446;29;20059;-79
2023/04/02 09:38:07;;;;;;;7.03;3.38;;;;;;;;;;4924746;29;20063;-76
2023/04/02 09:40:55;;;;;;;6.93;3.22;;;;;;;;;;4923904;29;20253;-77
2023/04/02 09:43:22;;;;;;;5.00;2.80;;;;;;;;;;4920321;28;20051;-76
2023/04/02 09:46:03;;;;;;;8.07;3.20;;;;;;;;;;4940150;29;20587;-79
2023/04/02 09:48:40;;;;;;;5.22;3.08;;;;;;;;;;4930165;28;20126;-78
2023/04/02 09:51:07;;;;;;;6.00;3.03;;;;;;;;;;4934734;29;20055;-77
2023/04/02 09:53:41;;;;;;;6.28;3.10;;;;;;;;;;4932901;28;20047;-77
2023/04/02 09:56:10;;;;;;;7.10;3.50;;;;;;;;;;4936932;28;20071;-79
2023/04/02 09:58:37;;;;;;;6.97;3.33;;;;;;;;;;4936298;28;20048;-77
2023/04/02 10:01:04;;;;;;;6.72;3.30;;;;;;;;;;4938070;28;20059;-77
2023/04/02 10:03:31;;;;;;;7.18;3.80;;;;;;;;;;4941088;28;20059;-77
2023/04/02 10:06:04;;;;;;;6.63;3.38;;;;;;;;;;4932332;29;20094;-75
2023/04/02 10:08:31;;;;;;;5.68;3.22;;;;;;;;;;4936722;29;20071;-78
2023/04/02 10:10:59;;;;;;;8.27;3.13;;;;;;;;;;4931172;29;20048;-78
2023/04/02 10:13:32;;;;;;;5.00;2.92;;;;;;;;;;4920972;29;20747;-76
2023/04/02 10:16:08;;;;;;;5.75;3.03;;;;;;;;;;4926962;29;20039;-77
2023/04/02 10:18:41;;;;;;;4.60;2.70;;;;;;;;;;4928854;29;20420;-78
2023/04/02 10:21:09;;;;;;;8.27;2.33;;;;;;;;;;4915495;29;20062;-78
2023/04/02 10:23:37;;;;;;;3.25;2.13;;;;;;;;;;4916017;29;20074;-77
2023/04/02 10:26:15;;;;;;;5.88;2.30;;;;;;;;;;4915819;29;20500;-80
2023/04/02 10:28:42;;;;;;;9.95;2.47;;;;;;;;;;4924517;29;20089;-78
2023/04/02 10:31:09;;;;;;;6.53;2.30;;;;;;;;;;4928213;29;20114;-78
2023/04/02 10:33:36;;;;;;;8.82;3.88;;;;;;;;;;4920473;29;20102;-78
2023/04/02 10:36:18;;;;;;;4.20;2.15;;;;;;;;;;4931410;29;20119;-78
2023/04/02 10:38:54;;;;;;;6.78;1.90;;;;;;;;;;4923817;29;20050;-77
2023/04/02 10:41:30;;;;;;;6.30;3.15;;;;;;;;;;4925379;29;20055;-76
2023/04/02 10:44:08;;;;;;;3.75;1.83;;;;;;;;;;4924328;28;20619;-77
2023/04/02 10:46:58;;;;;;;5.78;2.08;;;;;;;;;;4908804;29;20052;-77
2023/04/02 10:49:41;;;;;;;7.18;2.25;;;;;;;;;;4916648;29;20184;-76
2023/04/02 10:52:08;;;;;;;6.68;2.30;;;;;;;;;;4928684;29;20048;-79
2023/04/02 10:55:10;;;;;;;5.93;2.20;;;;;;;;;;4928546;29;20044;-79
2023/04/02 10:57:39;;;;;;;4.25;2.10;;;;;;;;;;4850472;29;20330;-77
2023/04/02 11:00:15;;;;;;;5.75;2.38;;;;;;;;;;4914452;29;20047;-78
2023/04/02 11:02:45;;;;;;;4.22;2.15;;;;;;;;;;4916271;29;20082;-77
2023/04/02 11:05:15;;;;;;;9.20;2.25;;;;;;;;;;4928880;29;20040;-78
2023/04/02 11:07:51;;;;;;;5.70;2.28;;;;;;;;;;4928921;29;20228;-78
2023/04/02 11:10:18;;;;;;;8.27;2.50;;;;;;;;;;4922441;29;20246;-79
2023/04/02 11:12:49;;;;;;;4.82;2.42;;;;;;;;;;4916511;29;20506;-79
2023/04/02 11:15:16;;;;;;;6.18;2.70;;;;;;;;;;4907009;29;20060;-77
2023/04/02 11:17:44;;;;;;;5.75;2.40;;;;;;;;;;4932169;29;20119;-77
2023/04/02 11:20:29;;;;;;;6.32;2.40;;;;;;;;;;4925615;29;20059;-77
2023/04/02 11:23:10;;;;;;;6.15;2.58;;;;;;;;;;4927134;29;20606;-77
2023/04/02 11:25:37;;;;;;;5.30;2.25;;;;;;;;;;4925648;29;20047;-76
2023/04/02 11:28:12;;;;;;;9.07;2.55;;;;;;;;;;4914951;29;20537;-77
2023/04/02 11:30:39;;;;;;;;;;;;;;;;;;4920747;29;20050;-78
2023/04/02 11:33:22;;;;;;;5.00;2.30;;;;;;;;;;4924667;29;20070;-79
2023/04/02 11:36:02;;;;;;;6.78;2.67;;;;;;;;;;4924717;29;20083;-77
2023/04/02 11:38:49;;;;;;;6.43;2.80;;;;;;;;;;4927563;29;20571;-78
2023/04/02 11:41:44;;;;;;;10.95;3.00;;;;;;;;;;4909856;29;20051;-77
2023/04/02 11:44:21;;;;;;;5.65;2.38;;;;;;;;;;4888609;29;20080;-78
2023/04/02 11:46:47;;;;;;;8.07;2.95;;;;;;;;;;4910353;29;20051;-77
2023/04/02 11:49:34;;;;;;;10.05;3.00;;;;;;;;;;4914734;29;20048;-78
2023/04/02 11:52:03;;;;;;;9.68;2.80;;;;;;;;;;4912663;29;20066;-76
2023/04/02 11:54:38;;;;;;;7.68;2.45;;;;;;;;;;4915708;28;20054;-77
2023/04/02 11:57:15;;;;;;;6.45;2.47;;;;;;;;;;4937869;29;20072;-76
2023/04/02 11:59:49;;;;;;;7.30;2.53;;;;;;;;;;4944652;29;20111;-78
2023/04/02 12:02:33;;;;;;;4.85;2.47;;;;;;;;;;4940761;29;20044;-77
2023/04/02 12:05:26;;;;;;;7.18;2.15;;;;;;;;;;4927048;29;20071;-78
2023/04/02 12:07:56;;;;;;;4.45;2.30;;;;;;;;;;4920775;29;20468;-78
2023/04/02 12:10:27;;;;;;;5.80;2.33;;;;;;;;;;4924213;29;20139;-78
2023/04/02 12:12:55;;;;;;;6.70;2.67;;;;;;;;;;4937866;29;20086;-78
2023/04/02 12:15:39;;;;;;;5.93;2.35;;;;;;;;;;4905082;29;20044;-77
2023/04/02 12:18:13;;;;;;;8.60;2.47;;;;;;;;;;4936941;28;20748;-78
2023/04/02 12:20:41;;;;;;;7.20;2.30;;;;;;;;;;4935702;28;20074;-75
2023/04/02 12:23:17;;;;;;;7.13;2.45;;;;;;;;;;4937413;28;20126;-78
2023/04/02 12:25:53;;;;;;;8.38;2.35;;;;;;;;;;4936952;28;20055;-75
2023/04/02 12:28:21;;;;;;;6.85;2.55;;;;;;;;;;4931595;28;20587;-77
2023/04/02 12:30:48;;;;;;;10.18;2.78;;;;;;;;;;4938775;28;20047;-79
2023/04/02 12:33:38;;;;;;;6.05;2.30;;;;;;;;;;4935002;28;20135;-78
2023/04/02 12:36:08;;;;;;;5.15;2.60;;;;;;;;;;4933452;28;20114;-79
2023/04/02 12:38:42;;;;;;;7.10;2.05;;;;;;;;;;4932052;28;20517;-78
2023/04/02 12:41:29;;;;;;;6.97;2.28;;;;;;;;;;4930930;28;20071;-78
2023/04/02 12:44:10;;;;;;;6.97;2.45;;;;;;;;;;4934845;28;20052;-78
2023/04/02 12:46:37;;;;;;;4.80;2.47;;;;;;;;;;4934259;28;20055;-78
2023/04/02 12:49:05;;;;;;;6.68;2.70;;;;;;;;;;4926886;28;20139;-77
2023/04/02 12:51:34;;;;;;;6.40;2.63;;;;;;;;;;4934729;28;20063;-76
2023/04/02 12:54:01;;;;;;;5.90;2.17;;;;;;;;;;4931846;28;20060;-77
2023/04/02 12:56:28;;;;;;;4.13;2.20;;;;;;;;;;4931930;28;20326;-78
2023/04/02 12:58:58;;;;;;;8.85;2.60;;;;;;;;;;4928552;29;20058;-77
2023/04/02 13:01:27;;;;;;;5.10;2.40;;;;;;;;;;4930746;28;20055;-77
2023/04/02 13:04:03;;;;;;;8.90;2.90;;;;;;;;;;4930913;29;20066;-77
2023/04/02 13:06:30;;;;;;;11.40;2.75;;;;;;;;;;4913375;29;20051;-77
2023/04/02 13:08:58;;;;;;;8.63;2.25;;;;;;;;;;4938595;29;20054;-78
2023/04/02 13:11:34;;;;;;;7.10;2.70;;;;;;;;;;4927155;29;20048;-77
2023/04/02 13:14:02;;;;;;;8.25;2.50;;;;;;;;;;4926979;29;20094;-78
2023/04/02 13:16:32;;;;;;;5.63;2.38;;;;;;;;;;4909244;29;20048;-78
2023/04/02 13:19:10;;;;;;;7.15;2.53;;;;;;;;;;4926484;29;20055;-79
2023/04/02 13:21:37;;;;;;;6.93;2.25;;;;;;;;;;4932447;28;20054;-78
2023/04/02 13:24:04;;;;;;;6.63;2.28;;;;;;;;;;4925712;29;20058;-78
2023/04/02 13:26:30;;;;;;;5.53;2.25;;;;;;;;;;4928227;29;20055;-78
2023/04/02 13:28:57;;;;;;;4.95;2.00;;;;;;;;;;4916964;29;20052;-78
2023/04/02 13:31:24;;;;;;;4.43;1.83;;;;;;;;;;4930257;28;20535;-79
2023/04/02 13:33:51;;;;;;;9.07;2.10;;;;;;;;;;4928363;29;20063;-77
2023/04/02 13:36:18;;;;;;;4.93;1.92;;;;;;;;;;4923350;29;20036;-76
2023/04/02 13:38:45;;;;;;;7.07;2.33;;;;;;;;;;4925683;29;20480;-78
2023/04/02 13:41:17;;;;;;;4.03;1.75;;;;;;;;;;4925674;29;20059;-77
2023/04/02 13:43:44;;;;;;;4.68;1.90;;;;;;;;;;4907651;29;20074;-79
2023/04/02 13:46:16;;;;;;;4.28;1.95;;;;;;;;;;4924991;29;20059;-79
2023/04/02 13:48:45;;;;;;;5.65;1.95;;;;;;;;;;4919229;29;20084;-79
2023/04/02 13:51:14;;;;;;;5.75;2.00;;;;;;;;;;4928239;29;20044;-80
2023/04/02 13:53:41;;;;;;;6.40;1.83;;;;;;;;;;4920227;29;20043;-78
2023/04/02 13:56:08;;;;;;;8.73;2.13;;;;;;;;;;4924024;29;20075;-78
2023/04/02 13:58:35;;;;;;;5.45;1.83;;;;;;;;;;4925956;29;20059;-78
2023/04/02 14:01:01;;;;;;;5.30;2.20;;;;;;;;;;4926922;29;20055;-80
2023/04/02 14:03:28;;;;;;;4.53;1.98;;;;;;;;;;4929186;28;20791;-78
2023/04/02 14:06:07;;;;;;;4.35;1.90;;;;;;;;;;4935086;28;20055;-78
2023/04/02 14:08:33;;;;;;;7.50;2.13;;;;;;;;;;4926234;29;20622;-78
2023/04/02 14:11:20;;;;;;;5.82;1.80;;;;;;;;;;4926153;29;20125;-78
2023/04/02 14:14:08;;;;;;;4.15;2.00;;;;;;;;;;4920835;29;20072;-78
2023/04/02 14:16:35;;;;;;;3.75;1.80;;;;;;;;;;4909209;29;20075;-78
2023/04/02 14:19:12;;;;;;;4.80;1.80;;;;;;;;;;4925793;29;20060;-78
2023/04/02 14:21:41;;;;;;;6.57;2.00;;;;;;;;;;4915045;29;20051;-81
2023/04/02 14:24:26;;;;;;;4.63;2.10;;;;;;;;;;4908678;29;20424;-79
2023/04/02 14:27:05;;;;;;;6.47;2.65;;;;;;;;;;4908486;29;20146;-78
2023/04/02 14:29:40;;;;;;;4.60;2.25;;;;;;;;;;4918763;29;20586;-78
2023/04/02 14:32:07;;;;;;;;;;;;;;;;;;4920660;29;20054;-78
2023/04/02 14:34:50;;;;;;;7.65;1.98;;;;;;;;;;4924009;29;19923;-79
2023/04/02 14:37:19;;;;;;;6.07;2.15;;;;;;;;;;4921503;29;20134;-79
2023/04/02 14:39:56;;;;;;;5.28;1.83;;;;;;;;;;4927897;29;20052;-79
2023/04/02 14:42:23;;;;;;;3.42;1.60;;;;;;;;;;4927780;29;20056;-79
2023/04/02 14:45:08;;;;;;;5.38;1.83;;;;;;;;;;4927081;29;20122;-79
2023/04/02 14:47:41;;;;;;;6.32;1.90;;;;;;;;;;4928146;29;20044;-79
2023/04/02 14:50:15;;;;;;;5.57;1.70;;;;;;;;;;4925824;29;20056;-79
2023/04/02 14:52:44;;;;;;;4.60;1.92;;;;;;;;;;4926791;29;20056;-79
2023/04/02 14:55:13;;;;;;;6.20;1.85;;;;;;;;;;4928180;29;20054;-79
2023/04/02 14:57:43;;;;;;;4.68;1.80;;;;;;;;;;4929513;29;20102;-79
2023/04/02 15:00:23;;;;;;;5.40;1.70;;;;;;;;;;4927801;29;20047;-79
2023/04/02 15:02:56;;;;;;;2.88;1.23;;;;;;;;;;4927458;29;20044;-79
2023/04/02 15:05:41;;;;;;;6.65;1.88;;;;;;;;;;4919817;29;20043;-80
2023/04/02 15:08:17;;;;;;;5.60;1.95;;;;;;;;;;4909932;29;20143;-79
2023/04/02 15:10:46;;;;;;;6.63;2.05;;;;;;;;;;4905902;29;20056;-77